sensor_id;sensor_type;location;lat;lon;timestamp;temperature;humidity
69503;SHT31;56704;54.242;12.442;2024-01-30T00:00:24;3.10;79.31
69503;SHT31;56704;54.242;12.442;2024-01-30T00:02:50;3.07;79.32
69503;SHT31;56704;54.242;12.442;2024-01-30T00:05:17;3.07;79.32
69503;SHT31;56704;54.242;12.442;2024-01-30T00:07:45;3.07;79.34
69503;SHT31;56704;54.242;12.442;2024-01-30T00:10:11;3.09;79.50
69503;SHT31;56704;54.242;12.442;2024-01-30T00:12:38;3.26;79.96
69503;SHT31;56704;54.242;12.442;2024-01-30T00:15:05;3.40;79.75
69503;SHT31;56704;54.242;12.442;2024-01-30T00:17:35;3.45;79.40
69503;SHT31;56704;54.242;12.442;2024-01-30T00:20:01;3.44;78.90
69503;SHT31;56704;54.242;12.442;2024-01-30T00:22:30;3.33;78.82
69503;SHT31;56704;54.242;12.442;2024-01-30T00:24:58;3.24;79.01
69503;SHT31;56704;54.242;12.442;2024-01-30T00:27:25;3.19;79.07
69503;SHT31;56704;54.242;12.442;2024-01-30T00:29:52;3.10;79.15
69503;SHT31;56704;54.242;12.442;2024-01-30T00:32:19;3.04;79.28
69503;SHT31;56704;54.242;12.442;2024-01-30T00:34:45;2.97;79.47
69503;SHT31;56704;54.242;12.442;2024-01-30T00:37:12;2.89;79.64
69503;SHT31;56704;54.242;12.442;2024-01-30T00:39:38;2.83;79.81
69503;SHT31;56704;54.242;12.442;2024-01-30T00:42:06;2.83;79.99
69503;SHT31;56704;54.242;12.442;2024-01-30T00:44:35;2.78;80.17
69503;SHT31;56704;54.242;12.442;2024-01-30T00:47:02;2.78;80.13
69503;SHT31;56704;54.242;12.442;2024-01-30T00:49:29;2.73;80.16
69503;SHT31;56704;54.242;12.442;2024-01-30T00:51:55;2.69;80.25
69503;SHT31;56704;54.242;12.442;2024-01-30T00:54:22;2.63;80.32
69503;SHT31;56704;54.242;12.442;2024-01-30T00:56:49;2.60;80.47
69503;SHT31;56704;54.242;12.442;2024-01-30T00:59:17;2.65;80.55
69503;SHT31;56704;54.242;12.442;2024-01-30T01:01:43;2.62;80.62
69503;SHT31;56704;54.242;12.442;2024-01-30T01:04:10;2.62;80.61
69503;SHT31;56704;54.242;12.442;2024-01-30T01:06:36;2.65;80.63
69503;SHT31;56704;54.242;12.442;2024-01-30T01:09:03;2.63;80.62
69503;SHT31;56704;54.242;12.442;2024-01-30T01:11:30;2.65;80.64
69503;SHT31;56704;54.242;12.442;2024-01-30T01:13:56;2.63;80.63
69503;SHT31;56704;54.242;12.442;2024-01-30T01:16:24;2.62;80.66
69503;SHT31;56704;54.242;12.442;2024-01-30T01:18:51;2.59;80.60
69503;SHT31;56704;54.242;12.442;2024-01-30T01:21:17;2.56;80.69
69503;SHT31;56704;54.242;12.442;2024-01-30T01:23:44;2.58;80.75
69503;SHT31;56704;54.242;12.442;2024-01-30T01:26:11;2.55;80.85
69503;SHT31;56704;54.242;12.442;2024-01-30T01:28:39;2.52;80.85
69503;SHT31;56704;54.242;12.442;2024-01-30T01:31:05;2.49;80.94
69503;SHT31;56704;54.242;12.442;2024-01-30T01:33:34;2.45;81.01
69503;SHT31;56704;54.242;12.442;2024-01-30T01:36:02;2.39;81.10
69503;SHT31;56704;54.242;12.442;2024-01-30T01:38:29;2.37;81.17
69503;SHT31;56704;54.242;12.442;2024-01-30T01:40:55;2.32;81.30
69503;SHT31;56704;54.242;12.442;2024-01-30T01:43:22;2.29;81.36
69503;SHT31;56704;54.242;12.442;2024-01-30T01:45:48;2.28;81.51
69503;SHT31;56704;54.242;12.442;2024-01-30T01:48:15;2.28;81.56
69503;SHT31;56704;54.242;12.442;2024-01-30T01:50:43;2.25;81.58
69503;SHT31;56704;54.242;12.442;2024-01-30T01:53:10;2.21;81.57
69503;SHT31;56704;54.242;12.442;2024-01-30T01:55:37;2.14;81.66
69503;SHT31;56704;54.242;12.442;2024-01-30T01:58:04;2.14;81.81
69503;SHT31;56704;54.242;12.442;2024-01-30T02:00:31;2.10;81.84
69503;SHT31;56704;54.242;12.442;2024-01-30T02:02:59;2.07;81.88
69503;SHT31;56704;54.242;12.442;2024-01-30T02:05:26;2.01;81.92
69503;SHT31;56704;54.242;12.442;2024-01-30T02:07:54;2.00;82.02
69503;SHT31;56704;54.242;12.442;2024-01-30T02:10:22;1.98;82.15
69503;SHT31;56704;54.242;12.442;2024-01-30T02:12:48;2.03;82.29
69503;SHT31;56704;54.242;12.442;2024-01-30T02:15:15;2.10;82.28
69503;SHT31;56704;54.242;12.442;2024-01-30T02:17:42;2.13;82.19
69503;SHT31;56704;54.242;12.442;2024-01-30T02:20:09;2.07;82.08
69503;SHT31;56704;54.242;12.442;2024-01-30T02:22:38;2.01;82.09
69503;SHT31;56704;54.242;12.442;2024-01-30T02:25:07;1.96;82.16
69503;SHT31;56704;54.242;12.442;2024-01-30T02:27:34;1.94;82.23
69503;SHT31;56704;54.242;12.442;2024-01-30T02:30:00;1.96;82.31
69503;SHT31;56704;54.242;12.442;2024-01-30T02:32:27;1.94;82.37
69503;SHT31;56704;54.242;12.442;2024-01-30T02:34:54;1.96;82.39
69503;SHT31;56704;54.242;12.442;2024-01-30T02:37:20;1.97;82.32
69503;SHT31;56704;54.242;12.442;2024-01-30T02:39:48;1.93;82.41
69503;SHT31;56704;54.242;12.442;2024-01-30T02:42:15;1.91;82.43
69503;SHT31;56704;54.242;12.442;2024-01-30T02:44:41;1.93;82.57
69503;SHT31;56704;54.242;12.442;2024-01-30T02:47:08;1.96;82.51
69503;SHT31;56704;54.242;12.442;2024-01-30T02:49:34;1.94;82.47
69503;SHT31;56704;54.242;12.442;2024-01-30T02:52:01;1.88;82.52
69503;SHT31;56704;54.242;12.442;2024-01-30T02:54:28;1.93;82.54
69503;SHT31;56704;54.242;12.442;2024-01-30T02:56:57;1.93;82.58
69503;SHT31;56704;54.242;12.442;2024-01-30T02:59:24;1.88;82.61
69503;SHT31;56704;54.242;12.442;2024-01-30T03:01:50;1.88;82.62
69503;SHT31;56704;54.242;12.442;2024-01-30T03:04:17;1.90;82.60
69503;SHT31;56704;54.242;12.442;2024-01-30T03:06:47;1.93;82.67
69503;SHT31;56704;54.242;12.442;2024-01-30T03:09:15;1.96;82.62
69503;SHT31;56704;54.242;12.442;2024-01-30T03:11:42;1.91;82.61
69503;SHT31;56704;54.242;12.442;2024-01-30T03:14:09;1.90;82.64
69503;SHT31;56704;54.242;12.442;2024-01-30T03:16:36;1.93;82.71
69503;SHT31;56704;54.242;12.442;2024-01-30T03:19:03;2.08;82.84
69503;SHT31;56704;54.242;12.442;2024-01-30T03:21:30;2.15;82.45
69503;SHT31;56704;54.242;12.442;2024-01-30T03:23:57;2.15;82.13
69503;SHT31;56704;54.242;12.442;2024-01-30T03:26:23;2.14;82.09
69503;SHT31;56704;54.242;12.442;2024-01-30T03:28:50;2.17;82.24
69503;SHT31;56704;54.242;12.442;2024-01-30T03:31:18;2.22;82.23
69503;SHT31;56704;54.242;12.442;2024-01-30T03:33:45;2.28;82.17
69503;SHT31;56704;54.242;12.442;2024-01-30T03:36:11;2.34;82.09
69503;SHT31;56704;54.242;12.442;2024-01-30T03:38:38;2.37;81.96
69503;SHT31;56704;54.242;12.442;2024-01-30T03:41:07;2.38;81.85
69503;SHT31;56704;54.242;12.442;2024-01-30T03:43:34;2.44;81.86
69503;SHT31;56704;54.242;12.442;2024-01-30T03:46:01;2.48;81.78
69503;SHT31;56704;54.242;12.442;2024-01-30T03:48:29;2.55;81.75
69503;SHT31;56704;54.242;12.442;2024-01-30T03:50:56;2.56;81.65
69503;SHT31;56704;54.242;12.442;2024-01-30T03:53:22;2.62;81.54
69503;SHT31;56704;54.242;12.442;2024-01-30T03:55:49;2.62;81.46
69503;SHT31;56704;54.242;12.442;2024-01-30T03:58:15;2.69;81.46
69503;SHT31;56704;54.242;12.442;2024-01-30T04:00:42;2.71;81.42
69503;SHT31;56704;54.242;12.442;2024-01-30T04:03:08;2.80;81.57
69503;SHT31;56704;54.242;12.442;2024-01-30T04:05:36;2.96;81.34
69503;SHT31;56704;54.242;12.442;2024-01-30T04:08:05;2.99;80.98
69503;SHT31;56704;54.242;12.442;2024-01-30T04:10:32;3.00;80.95
69503;SHT31;56704;54.242;12.442;2024-01-30T04:12:58;3.01;80.96
69503;SHT31;56704;54.242;12.442;2024-01-30T04:15:25;3.04;80.96
69503;SHT31;56704;54.242;12.442;2024-01-30T04:17:51;3.07;80.91
69503;SHT31;56704;54.242;12.442;2024-01-30T04:20:18;3.10;80.87
69503;SHT31;56704;54.242;12.442;2024-01-30T04:22:47;3.13;80.80
69503;SHT31;56704;54.242;12.442;2024-01-30T04:25:13;3.17;80.82
69503;SHT31;56704;54.242;12.442;2024-01-30T04:27:40;3.21;80.83
69503;SHT31;56704;54.242;12.442;2024-01-30T04:30:08;3.20;80.85
69503;SHT31;56704;54.242;12.442;2024-01-30T04:32:35;3.21;80.88
69503;SHT31;56704;54.242;12.442;2024-01-30T04:35:01;3.24;80.94
69503;SHT31;56704;54.242;12.442;2024-01-30T04:37:27;3.28;81.02
69503;SHT31;56704;54.242;12.442;2024-01-30T04:39:55;3.30;81.02
69503;SHT31;56704;54.242;12.442;2024-01-30T04:42:22;3.34;81.04
69503;SHT31;56704;54.242;12.442;2024-01-30T04:44:49;3.42;81.04
69503;SHT31;56704;54.242;12.442;2024-01-30T04:47:16;3.42;80.95
69503;SHT31;56704;54.242;12.442;2024-01-30T04:49:42;3.44;80.90
69503;SHT31;56704;54.242;12.442;2024-01-30T04:52:09;3.45;80.88
69503;SHT31;56704;54.242;12.442;2024-01-30T04:54:35;3.48;80.78
69503;SHT31;56704;54.242;12.442;2024-01-30T04:57:04;3.54;80.76
69503;SHT31;56704;54.242;12.442;2024-01-30T04:59:34;3.57;80.78
69503;SHT31;56704;54.242;12.442;2024-01-30T05:02:01;3.61;80.75
69503;SHT31;56704;54.242;12.442;2024-01-30T05:04:28;3.64;80.66
69503;SHT31;56704;54.242;12.442;2024-01-30T05:06:54;3.61;80.59
69503;SHT31;56704;54.242;12.442;2024-01-30T05:09:21;3.61;80.57
69503;SHT31;56704;54.242;12.442;2024-01-30T05:11:47;3.57;80.88
69503;SHT31;56704;54.242;12.442;2024-01-30T05:14:15;3.60;81.16
69503;SHT31;56704;54.242;12.442;2024-01-30T05:16:43;3.52;81.21
69503;SHT31;56704;54.242;12.442;2024-01-30T05:19:12;3.50;81.40
69503;SHT31;56704;54.242;12.442;2024-01-30T05:21:39;3.47;81.71
69503;SHT31;56704;54.242;12.442;2024-01-30T05:24:06;3.50;82.00
69503;SHT31;56704;54.242;12.442;2024-01-30T05:26:32;3.51;82.23
69503;SHT31;56704;54.242;12.442;2024-01-30T05:28:59;3.55;82.46
69503;SHT31;56704;54.242;12.442;2024-01-30T05:31:27;3.61;82.66
69503;SHT31;56704;54.242;12.442;2024-01-30T05:33:54;3.62;82.88
69503;SHT31;56704;54.242;12.442;2024-01-30T05:36:21;3.67;82.96
69503;SHT31;56704;54.242;12.442;2024-01-30T05:38:47;3.71;83.09
69503;SHT31;56704;54.242;12.442;2024-01-30T05:41:14;3.72;83.32
69503;SHT31;56704;54.242;12.442;2024-01-30T05:43:44;3.81;84.04
69503;SHT31;56704;54.242;12.442;2024-01-30T05:46:11;3.77;84.19
69503;SHT31;56704;54.242;12.442;2024-01-30T05:48:39;3.81;84.58
69503;SHT31;56704;54.242;12.442;2024-01-30T05:51:06;3.84;84.95
69503;SHT31;56704;54.242;12.442;2024-01-30T05:53:33;3.93;85.01
69503;SHT31;56704;54.242;12.442;2024-01-30T05:56:01;4.02;84.86
69503;SHT31;56704;54.242;12.442;2024-01-30T05:58:27;4.09;84.73
69503;SHT31;56704;54.242;12.442;2024-01-30T06:00:54;4.12;84.61
69503;SHT31;56704;54.242;12.442;2024-01-30T06:03:21;4.13;84.55
69503;SHT31;56704;54.242;12.442;2024-01-30T06:05:49;4.16;84.64
69503;SHT31;56704;54.242;12.442;2024-01-30T06:08:15;4.20;84.53
69503;SHT31;56704;54.242;12.442;2024-01-30T06:10:43;4.20;84.55
69503;SHT31;56704;54.242;12.442;2024-01-30T06:13:10;4.23;84.46
69503;SHT31;56704;54.242;12.442;2024-01-30T06:15:36;4.29;84.35
69503;SHT31;56704;54.242;12.442;2024-01-30T06:18:03;4.29;84.12
69503;SHT31;56704;54.242;12.442;2024-01-30T06:20:30;4.30;83.99
69503;SHT31;56704;54.242;12.442;2024-01-30T06:22:58;4.29;83.95
69503;SHT31;56704;54.242;12.442;2024-01-30T06:25:25;4.32;83.83
69503;SHT31;56704;54.242;12.442;2024-01-30T06:27:52;4.35;83.73
69503;SHT31;56704;54.242;12.442;2024-01-30T06:30:18;4.35;83.56
69503;SHT31;56704;54.242;12.442;2024-01-30T06:32:45;4.37;83.11
69503;SHT31;56704;54.242;12.442;2024-01-30T06:35:11;4.35;83.13
69503;SHT31;56704;54.242;12.442;2024-01-30T06:37:38;4.36;83.11
69503;SHT31;56704;54.242;12.442;2024-01-30T06:40:07;4.42;82.91
69503;SHT31;56704;54.242;12.442;2024-01-30T06:42:34;4.40;82.76
69503;SHT31;56704;54.242;12.442;2024-01-30T06:45:00;4.40;82.71
69503;SHT31;56704;54.242;12.442;2024-01-30T06:47:27;4.43;82.65
69503;SHT31;56704;54.242;12.442;2024-01-30T06:49:54;4.44;82.63
69503;SHT31;56704;54.242;12.442;2024-01-30T06:52:20;4.43;82.58
69503;SHT31;56704;54.242;12.442;2024-01-30T06:54:49;4.40;82.51
69503;SHT31;56704;54.242;12.442;2024-01-30T06:57:17;4.32;82.48
69503;SHT31;56704;54.242;12.442;2024-01-30T06:59:43;4.23;82.58
69503;SHT31;56704;54.242;12.442;2024-01-30T07:02:10;4.15;82.71
69503;SHT31;56704;54.242;12.442;2024-01-30T07:04:37;4.07;82.85
69503;SHT31;56704;54.242;12.442;2024-01-30T07:07:04;4.05;83.02
69503;SHT31;56704;54.242;12.442;2024-01-30T07:09:31;3.98;83.08
69503;SHT31;56704;54.242;12.442;2024-01-30T07:11:57;3.92;83.15
69503;SHT31;56704;54.242;12.442;2024-01-30T07:14:25;3.77;83.21
69503;SHT31;56704;54.242;12.442;2024-01-30T07:16:52;3.68;83.33
69503;SHT31;56704;54.242;12.442;2024-01-30T07:19:18;3.58;83.49
69503;SHT31;56704;54.242;12.442;2024-01-30T07:21:45;3.54;83.66
69503;SHT31;56704;54.242;12.442;2024-01-30T07:24:12;3.44;83.68
69503;SHT31;56704;54.242;12.442;2024-01-30T07:26:38;3.38;83.74
69503;SHT31;56704;54.242;12.442;2024-01-30T07:29:05;3.31;83.79
69503;SHT31;56704;54.242;12.442;2024-01-30T07:31:33;3.26;83.84
69503;SHT31;56704;54.242;12.442;2024-01-30T07:33:59;3.26;83.94
69503;SHT31;56704;54.242;12.442;2024-01-30T07:36:26;3.23;83.98
69503;SHT31;56704;54.242;12.442;2024-01-30T07:38:52;3.19;84.00
69503;SHT31;56704;54.242;12.442;2024-01-30T07:41:20;3.17;83.99
69503;SHT31;56704;54.242;12.442;2024-01-30T07:43:46;3.17;83.99
69503;SHT31;56704;54.242;12.442;2024-01-30T07:46:13;3.16;84.00
69503;SHT31;56704;54.242;12.442;2024-01-30T07:48:41;3.16;84.03
69503;SHT31;56704;54.242;12.442;2024-01-30T07:51:08;3.14;83.97
69503;SHT31;56704;54.242;12.442;2024-01-30T07:53:34;3.14;83.89
69503;SHT31;56704;54.242;12.442;2024-01-30T07:56:01;3.14;83.74
69503;SHT31;56704;54.242;12.442;2024-01-30T07:58:28;3.20;83.67
69503;SHT31;56704;54.242;12.442;2024-01-30T08:00:54;3.21;83.69
69503;SHT31;56704;54.242;12.442;2024-01-30T08:03:23;3.31;83.33
69503;SHT31;56704;54.242;12.442;2024-01-30T08:05:51;3.19;82.88
69503;SHT31;56704;54.242;12.442;2024-01-30T08:08:18;3.17;82.87
69503;SHT31;56704;54.242;12.442;2024-01-30T08:10:44;3.09;82.80
69503;SHT31;56704;54.242;12.442;2024-01-30T08:13:11;3.04;82.94
69503;SHT31;56704;54.242;12.442;2024-01-30T08:15:37;3.00;82.89
69503;SHT31;56704;54.242;12.442;2024-01-30T08:18:04;2.99;83.15
69503;SHT31;56704;54.242;12.442;2024-01-30T08:20:32;2.99;83.20
69503;SHT31;56704;54.242;12.442;2024-01-30T08:23:00;2.96;83.19
69503;SHT31;56704;54.242;12.442;2024-01-30T08:25:27;2.99;83.38
69503;SHT31;56704;54.242;12.442;2024-01-30T08:27:53;3.01;83.45
69503;SHT31;56704;54.242;12.442;2024-01-30T08:30:20;3.09;83.43
69503;SHT31;56704;54.242;12.442;2024-01-30T08:32:46;3.10;83.45
69503;SHT31;56704;54.242;12.442;2024-01-30T08:35:13;3.16;83.32
69503;SHT31;56704;54.242;12.442;2024-01-30T08:37:41;3.17;83.25
69503;SHT31;56704;54.242;12.442;2024-01-30T08:40:10;3.19;83.28
69503;SHT31;56704;54.242;12.442;2024-01-30T08:42:36;3.24;83.27
69503;SHT31;56704;54.242;12.442;2024-01-30T08:45:04;3.31;83.23
69503;SHT31;56704;54.242;12.442;2024-01-30T08:47:31;3.35;83.15
69503;SHT31;56704;54.242;12.442;2024-01-30T08:49:58;3.44;83.11
69503;SHT31;56704;54.242;12.442;2024-01-30T08:52:25;3.51;82.94
69503;SHT31;56704;54.242;12.442;2024-01-30T08:54:51;3.58;82.85
69503;SHT31;56704;54.242;12.442;2024-01-30T08:57:19;3.64;82.71
69503;SHT31;56704;54.242;12.442;2024-01-30T08:59:46;3.70;82.62
69503;SHT31;56704;54.242;12.442;2024-01-30T09:02:13;3.77;82.51
69503;SHT31;56704;54.242;12.442;2024-01-30T09:04:41;3.82;82.45
69503;SHT31;56704;54.242;12.442;2024-01-30T09:07:09;3.89;82.46
69503;SHT31;56704;54.242;12.442;2024-01-30T09:09:37;4.02;82.46
69503;SHT31;56704;54.242;12.442;2024-01-30T09:12:05;4.13;82.19
69503;SHT31;56704;54.242;12.442;2024-01-30T09:14:35;4.23;82.14
69503;SHT31;56704;54.242;12.442;2024-01-30T09:17:02;4.33;82.01
69503;SHT31;56704;54.242;12.442;2024-01-30T09:19:30;4.54;81.62
69503;SHT31;56704;54.242;12.442;2024-01-30T09:21:56;4.61;81.44
69503;SHT31;56704;54.242;12.442;2024-01-30T09:24:23;4.73;81.31
69503;SHT31;56704;54.242;12.442;2024-01-30T09:26:49;4.84;81.29
69503;SHT31;56704;54.242;12.442;2024-01-30T09:29:16;4.89;81.16
69503;SHT31;56704;54.242;12.442;2024-01-30T09:31:45;4.99;81.10
69503;SHT31;56704;54.242;12.442;2024-01-30T09:34:11;5.08;80.97
69503;SHT31;56704;54.242;12.442;2024-01-30T09:36:39;5.21;80.69
69503;SHT31;56704;54.242;12.442;2024-01-30T09:39:05;5.39;80.73
69503;SHT31;56704;54.242;12.442;2024-01-30T09:41:33;5.56;80.31
69503;SHT31;56704;54.242;12.442;2024-01-30T09:44:08;5.62;80.34
69503;SHT31;56704;54.242;12.442;2024-01-30T09:46:35;5.70;79.82
69503;SHT31;56704;54.242;12.442;2024-01-30T09:49:04;5.77;79.73
69503;SHT31;56704;54.242;12.442;2024-01-30T09:51:30;5.89;79.64
69503;SHT31;56704;54.242;12.442;2024-01-30T09:53:57;5.96;79.46
69503;SHT31;56704;54.242;12.442;2024-01-30T09:56:24;6.01;79.35
69503;SHT31;56704;54.242;12.442;2024-01-30T09:58:51;6.04;79.22
69503;SHT31;56704;54.242;12.442;2024-01-30T10:01:18;6.13;78.92
69503;SHT31;56704;54.242;12.442;2024-01-30T10:03:45;6.27;79.10
69503;SHT31;56704;54.242;12.442;2024-01-30T10:06:14;6.44;78.58
69503;SHT31;56704;54.242;12.442;2024-01-30T10:08:42;6.51;78.26
69503;SHT31;56704;54.242;12.442;2024-01-30T10:11:09;6.49;78.07
69503;SHT31;56704;54.242;12.442;2024-01-30T10:13:35;6.49;78.45
69503;SHT31;56704;54.242;12.442;2024-01-30T10:16:02;6.51;78.01
69503;SHT31;56704;54.242;12.442;2024-01-30T10:18:31;6.44;78.10
69503;SHT31;56704;54.242;12.442;2024-01-30T10:20:58;6.46;78.44
69503;SHT31;56704;54.242;12.442;2024-01-30T10:23:27;6.58;78.44
69503;SHT31;56704;54.242;12.442;2024-01-30T10:25:54;6.58;78.30
69503;SHT31;56704;54.242;12.442;2024-01-30T10:28:20;6.61;78.44
69503;SHT31;56704;54.242;12.442;2024-01-30T10:30:57;6.69;78.48
69503;SHT31;56704;54.242;12.442;2024-01-30T10:33:25;6.76;78.25
69503;SHT31;56704;54.242;12.442;2024-01-30T10:35:53;6.89;77.81
69503;SHT31;56704;54.242;12.442;2024-01-30T10:38:21;6.97;77.54
69503;SHT31;56704;54.242;12.442;2024-01-30T10:40:54;7.07;77.44
69503;SHT31;56704;54.242;12.442;2024-01-30T10:43:22;7.10;77.56
69503;SHT31;56704;54.242;12.442;2024-01-30T10:45:53;7.13;77.22
69503;SHT31;56704;54.242;12.442;2024-01-30T10:48:24;7.07;77.26
69503;SHT31;56704;54.242;12.442;2024-01-30T10:50:53;7.06;77.52
69503;SHT31;56704;54.242;12.442;2024-01-30T10:53:22;7.09;77.39
69503;SHT31;56704;54.242;12.442;2024-01-30T10:55:52;7.05;77.34
69503;SHT31;56704;54.242;12.442;2024-01-30T10:58:20;7.05;77.46
69503;SHT31;56704;54.242;12.442;2024-01-30T11:00:49;7.09;77.31
69503;SHT31;56704;54.242;12.442;2024-01-30T11:03:17;7.14;77.66
69503;SHT31;56704;54.242;12.442;2024-01-30T11:05:49;7.23;76.93
69503;SHT31;56704;54.242;12.442;2024-01-30T11:08:22;7.26;77.25
69503;SHT31;56704;54.242;12.442;2024-01-30T11:10:54;7.34;77.44
69503;SHT31;56704;54.242;12.442;2024-01-30T11:13:22;7.37;77.14
69503;SHT31;56704;54.242;12.442;2024-01-30T11:15:48;7.47;76.72
69503;SHT31;56704;54.242;12.442;2024-01-30T11:18:22;7.53;76.70
69503;SHT31;56704;54.242;12.442;2024-01-30T11:20:49;7.71;76.66
69503;SHT31;56704;54.242;12.442;2024-01-30T11:23:16;7.79;75.78
69503;SHT31;56704;54.242;12.442;2024-01-30T11:25:43;7.85;75.90
69503;SHT31;56704;54.242;12.442;2024-01-30T11:28:13;7.81;75.70
69503;SHT31;56704;54.242;12.442;2024-01-30T11:30:42;7.81;76.07
69503;SHT31;56704;54.242;12.442;2024-01-30T11:33:10;7.95;76.12
69503;SHT31;56704;54.242;12.442;2024-01-30T11:35:37;7.92;75.97
69503;SHT31;56704;54.242;12.442;2024-01-30T11:38:06;7.99;75.58
69503;SHT31;56704;54.242;12.442;2024-01-30T11:40:34;8.06;75.80
69503;SHT31;56704;54.242;12.442;2024-01-30T11:45:29;8.15;75.09
69503;SHT31;56704;54.242;12.442;2024-01-30T11:47:57;8.06;75.37
69503;SHT31;56704;54.242;12.442;2024-01-30T11:50:25;8.18;75.92
69503;SHT31;56704;54.242;12.442;2024-01-30T11:52:52;8.22;75.42
69503;SHT31;56704;54.242;12.442;2024-01-30T11:55:18;8.28;75.81
69503;SHT31;56704;54.242;12.442;2024-01-30T11:57:46;8.33;75.78
69503;SHT31;56704;54.242;12.442;2024-01-30T12:00:17;8.35;75.82
69503;SHT31;56704;54.242;12.442;2024-01-30T12:02:48;8.36;75.69
69503;SHT31;56704;54.242;12.442;2024-01-30T12:05:18;8.35;76.00
69503;SHT31;56704;54.242;12.442;2024-01-30T12:07:45;8.32;76.08
69503;SHT31;56704;54.242;12.442;2024-01-30T12:10:12;8.36;76.30
69503;SHT31;56704;54.242;12.442;2024-01-30T12:12:41;8.29;76.02
69503;SHT31;56704;54.242;12.442;2024-01-30T12:15:08;8.32;75.86
69503;SHT31;56704;54.242;12.442;2024-01-30T12:17:35;8.26;75.41
69503;SHT31;56704;54.242;12.442;2024-01-30T12:20:05;8.24;75.92
69503;SHT31;56704;54.242;12.442;2024-01-30T12:22:35;8.26;76.56
69503;SHT31;56704;54.242;12.442;2024-01-30T12:25:03;8.29;76.59
69503;SHT31;56704;54.242;12.442;2024-01-30T12:27:30;8.28;76.59
69503;SHT31;56704;54.242;12.442;2024-01-30T12:29:57;8.28;76.46
69503;SHT31;56704;54.242;12.442;2024-01-30T12:32:24;8.28;76.42
69503;SHT31;56704;54.242;12.442;2024-01-30T12:34:54;8.30;76.69
69503;SHT31;56704;54.242;12.442;2024-01-30T12:37:20;8.32;76.92
69503;SHT31;56704;54.242;12.442;2024-01-30T12:39:50;8.36;76.85
69503;SHT31;56704;54.242;12.442;2024-01-30T12:42:19;8.36;76.92
69503;SHT31;56704;54.242;12.442;2024-01-30T12:44:46;8.43;76.77
69503;SHT31;56704;54.242;12.442;2024-01-30T12:47:12;8.49;76.71
69503;SHT31;56704;54.242;12.442;2024-01-30T12:49:41;8.59;76.72
69503;SHT31;56704;54.242;12.442;2024-01-30T12:52:08;8.71;76.76
69503;SHT31;56704;54.242;12.442;2024-01-30T12:54:34;8.76;76.80
69503;SHT31;56704;54.242;12.442;2024-01-30T12:57:03;8.90;76.79
69503;SHT31;56704;54.242;12.442;2024-01-30T12:59:30;9.00;76.11
69503;SHT31;56704;54.242;12.442;2024-01-30T13:01:56;9.05;76.09
69503;SHT31;56704;54.242;12.442;2024-01-30T13:04:23;9.10;75.97
69503;SHT31;56704;54.242;12.442;2024-01-30T13:06:50;9.05;75.47
69503;SHT31;56704;54.242;12.442;2024-01-30T13:09:16;9.15;75.14
69503;SHT31;56704;54.242;12.442;2024-01-30T13:11:43;9.14;75.64
69503;SHT31;56704;54.242;12.442;2024-01-30T13:14:11;9.12;75.57
69503;SHT31;56704;54.242;12.442;2024-01-30T13:16:37;9.10;74.84
69503;SHT31;56704;54.242;12.442;2024-01-30T13:19:04;9.12;74.92
69503;SHT31;56704;54.242;12.442;2024-01-30T13:21:31;9.17;75.42
69503;SHT31;56704;54.242;12.442;2024-01-30T13:23:57;9.17;75.08
69503;SHT31;56704;54.242;12.442;2024-01-30T13:26:25;9.10;75.08
69503;SHT31;56704;54.242;12.442;2024-01-30T13:28:51;9.12;74.80
69503;SHT31;56704;54.242;12.442;2024-01-30T13:31:19;9.17;75.16
69503;SHT31;56704;54.242;12.442;2024-01-30T13:33:46;9.20;75.33
69503;SHT31;56704;54.242;12.442;2024-01-30T13:36:14;9.21;75.42
69503;SHT31;56704;54.242;12.442;2024-01-30T13:38:41;9.22;75.48
69503;SHT31;56704;54.242;12.442;2024-01-30T13:41:07;9.21;75.70
69503;SHT31;56704;54.242;12.442;2024-01-30T13:43:34;9.17;75.79
69503;SHT31;56704;54.242;12.442;2024-01-30T13:46:01;9.17;76.11
69503;SHT31;56704;54.242;12.442;2024-01-30T13:48:30;9.07;75.86
69503;SHT31;56704;54.242;12.442;2024-01-30T13:50:57;9.05;76.06
69503;SHT31;56704;54.242;12.442;2024-01-30T13:59:58;8.99;76.46
69503;SHT31;56704;54.242;12.442;2024-01-30T14:03:11;9.03;76.82
69503;SHT31;56704;54.242;12.442;2024-01-30T14:22:04;8.84;76.71
69503;SHT31;56704;54.242;12.442;2024-01-30T14:24:31;8.91;76.75
69503;SHT31;56704;54.242;12.442;2024-01-30T14:26:58;8.91;77.13
69503;SHT31;56704;54.242;12.442;2024-01-30T14:29:25;8.87;77.15
69503;SHT31;56704;54.242;12.442;2024-01-30T14:31:53;8.84;76.88
69503;SHT31;56704;54.242;12.442;2024-01-30T14:34:20;8.80;77.13
69503;SHT31;56704;54.242;12.442;2024-01-30T14:36:47;8.76;77.10
69503;SHT31;56704;54.242;12.442;2024-01-30T14:39:13;8.73;77.49
69503;SHT31;56704;54.242;12.442;2024-01-30T14:41:40;8.69;77.24
69503;SHT31;56704;54.242;12.442;2024-01-30T14:44:06;8.67;77.63
69503;SHT31;56704;54.242;12.442;2024-01-30T14:46:35;8.66;77.46
69503;SHT31;56704;54.242;12.442;2024-01-30T14:49:03;8.54;77.25
69503;SHT31;56704;54.242;12.442;2024-01-30T14:51:33;8.57;77.41
69503;SHT31;56704;54.242;12.442;2024-01-30T14:53:59;8.56;76.91
69503;SHT31;56704;54.242;12.442;2024-01-30T14:56:26;8.56;77.41
69503;SHT31;56704;54.242;12.442;2024-01-30T14:58:53;8.49;77.00
69503;SHT31;56704;54.242;12.442;2024-01-30T15:01:20;8.43;77.05
69503;SHT31;56704;54.242;12.442;2024-01-30T15:03:46;8.36;77.38
69503;SHT31;56704;54.242;12.442;2024-01-30T15:06:14;8.30;77.45
69503;SHT31;56704;54.242;12.442;2024-01-30T15:08:41;8.28;77.60
69503;SHT31;56704;54.242;12.442;2024-01-30T15:11:07;8.25;77.89
69503;SHT31;56704;54.242;12.442;2024-01-30T15:13:34;8.18;77.99
69503;SHT31;56704;54.242;12.442;2024-01-30T15:16:02;8.21;78.36
69503;SHT31;56704;54.242;12.442;2024-01-30T15:18:30;8.16;78.32
69503;SHT31;56704;54.242;12.442;2024-01-30T15:20:57;8.12;78.39
69503;SHT31;56704;54.242;12.442;2024-01-30T15:23:25;8.08;78.48
69503;SHT31;56704;54.242;12.442;2024-01-30T15:25:51;8.06;78.72
69503;SHT31;56704;54.242;12.442;2024-01-30T15:28:18;8.05;78.73
69503;SHT31;56704;54.242;12.442;2024-01-30T15:30:46;8.01;78.58
69503;SHT31;56704;54.242;12.442;2024-01-30T15:33:15;7.99;78.76
69503;SHT31;56704;54.242;12.442;2024-01-30T15:35:42;7.97;78.85
69503;SHT31;56704;54.242;12.442;2024-01-30T15:38:09;7.95;78.95
69503;SHT31;56704;54.242;12.442;2024-01-30T15:40:37;7.94;79.08
69503;SHT31;56704;54.242;12.442;2024-01-30T15:43:04;7.88;79.06
69503;SHT31;56704;54.242;12.442;2024-01-30T15:45:31;7.88;79.18
69503;SHT31;56704;54.242;12.442;2024-01-30T15:47:57;7.85;79.39
69503;SHT31;56704;54.242;12.442;2024-01-30T15:50:24;7.81;79.41
69503;SHT31;56704;54.242;12.442;2024-01-30T15:52:50;7.79;79.53
69503;SHT31;56704;54.242;12.442;2024-01-30T15:55:17;7.77;79.62